createdAt,value
2018-12-05T03:38:34.642Z,23.77
2018-12-05T03:41:05.061Z,24.67
2018-12-05T03:43:35.553Z,24.73
2018-12-05T03:46:05.962Z,22.97
2018-12-05T03:48:36.295Z,28.30
2018-12-05T03:51:06.923Z,23.03
2018-12-05T03:53:37.099Z,23.10
2018-12-05T03:56:07.892Z,22.57
2018-12-05T03:58:37.990Z,21.27
2018-12-05T04:01:08.482Z,23.07
2018-12-05T04:03:38.590Z,24.67
2018-12-05T04:06:08.774Z,18.53
2018-12-05T04:08:38.950Z,19.07
2018-12-05T04:11:09.341Z,21.37
2018-12-05T04:13:39.878Z,21.77
2018-12-05T04:16:10.065Z,27.07
2018-12-05T04:18:40.862Z,27.37
2018-12-05T04:21:11.313Z,29.47
2018-12-05T04:23:41.567Z,27.03
2018-12-05T04:26:11.883Z,27.03
2018-12-05T04:28:42.281Z,28.50
2018-12-05T04:31:12.306Z,34.17
2018-12-05T04:33:42.855Z,35.57
2018-12-05T04:36:13.037Z,34.73
2018-12-05T04:38:43.735Z,39.30
2018-12-05T04:41:13.925Z,36.23
2018-12-05T04:43:44.110Z,38.23
2018-12-05T04:46:14.307Z,40.23
2018-12-05T04:48:44.409Z,36.63
2018-12-05T04:51:14.616Z,37.57
2018-12-05T04:53:44.994Z,37.13
2018-12-05T04:56:15.556Z,38.90
2018-12-05T04:58:45.750Z,43.33
2018-12-05T05:01:16.085Z,38.10
2018-12-05T05:03:46.711Z,42.00
2018-12-05T05:06:16.887Z,48.40
2018-12-05T05:08:47.085Z,35.63
2018-12-05T05:11:17.417Z,36.13
2018-12-05T05:13:47.868Z,35.90
2018-12-05T05:16:18.073Z,35.17
2018-12-05T05:18:48.252Z,40.57
2018-12-05T05:21:18.633Z,46.27
2018-12-05T05:23:49.027Z,43.90
2018-12-05T05:26:19.200Z,39.90
2018-12-05T05:28:49.554Z,44.93
2018-12-05T05:31:19.708Z,42.13
2018-12-05T05:33:50.243Z,41.93
2018-12-05T05:36:20.816Z,41.67
2018-12-05T05:38:50.956Z,43.63
2018-12-05T05:41:21.159Z,43.70
2018-12-05T05:43:51.684Z,52.30
2018-12-05T05:46:21.988Z,50.70
2018-12-05T05:48:52.332Z,48.70
2018-12-05T05:51:22.734Z,51.30
2018-12-05T05:53:52.920Z,42.40
2018-12-05T05:56:23.117Z,51.37
2018-12-05T05:58:53.298Z,46.10
2018-12-05T06:01:23.402Z,62.50
2018-12-05T06:03:53.653Z,51.73
2018-12-05T06:06:23.840Z,49.60
2018-12-05T06:08:54.084Z,53.87
2018-12-05T06:11:24.175Z,59.27
2018-12-05T06:13:54.608Z,53.67
2018-12-05T06:16:24.750Z,64.50
2018-12-05T06:18:54.943Z,67.57
2018-12-05T06:21:25.502Z,45.93
2018-12-05T06:23:55.690Z,55.97
2018-12-05T06:26:25.998Z,71.00
2018-12-05T06:28:56.107Z,58.23
2018-12-05T06:31:26.554Z,54.53
2018-12-05T06:33:56.777Z,31.87
2018-12-05T06:36:27.070Z,61.60
2018-12-05T06:38:59.296Z,52.87
2018-12-05T06:41:28.269Z,48.20
2018-12-05T06:43:58.441Z,34.93
2018-12-05T06:46:28.865Z,33.37
2018-12-05T06:48:59.116Z,21.33
2018-12-05T06:51:29.262Z,14.40
2018-12-05T06:53:59.548Z,18.10
2018-12-05T06:56:29.684Z,26.53
2018-12-05T06:59:00.031Z,16.90
2018-12-05T07:01:30.231Z,14.77
2018-12-05T07:04:00.485Z,19.90
2018-12-05T07:06:30.642Z,19.73
2018-12-05T07:09:01.093Z,15.70
2018-12-05T07:11:31.413Z,11.40
2018-12-05T07:14:01.620Z,10.53
2018-12-05T07:16:31.780Z,13.73
2018-12-05T07:19:01.882Z,13.17
2018-12-05T07:21:32.111Z,11.20
2018-12-05T07:24:02.310Z,9.50
2018-12-05T07:26:32.491Z,10.43
2018-12-05T07:29:02.732Z,10.10
2018-12-05T07:31:33.346Z,8.70
2018-12-05T07:34:03.854Z,8.90
2018-12-05T07:36:34.002Z,8.23
2018-12-05T07:39:06.003Z,11.10
2018-12-05T07:41:36.177Z,8.77
2018-12-05T07:44:06.891Z,7.27
2018-12-05T07:46:37.354Z,7.70
2018-12-05T07:49:07.626Z,5.17
2018-12-05T07:51:37.793Z,4.53
2018-12-05T07:54:08.015Z,5.83
2018-12-05T07:56:38.307Z,6.13
2018-12-05T07:59:08.525Z,4.90
2018-12-05T08:01:38.718Z,6.00
2018-12-05T08:04:09.323Z,3.67
2018-12-05T08:06:39.733Z,3.13
2018-12-05T08:09:10.323Z,4.07
2018-12-05T08:11:40.545Z,4.50
2018-12-05T08:14:10.771Z,4.27
2018-12-05T08:16:40.993Z,3.83
2018-12-05T08:19:11.255Z,4.73
2018-12-05T08:21:41.439Z,4.33
2018-12-05T08:24:11.978Z,3.67
2018-12-05T08:26:42.313Z,3.10
2018-12-05T08:29:12.469Z,2.60
2018-12-05T08:31:42.675Z,2.13
2018-12-05T08:34:12.866Z,4.17
2018-12-05T08:36:43.343Z,3.50
2018-12-05T08:39:13.588Z,2.53
2018-12-05T08:41:44.045Z,3.13
2018-12-05T08:44:15.029Z,3.90
2018-12-05T08:46:45.113Z,3.23
2018-12-05T08:49:15.293Z,5.23
2018-12-05T08:51:45.518Z,2.93
2018-12-05T08:54:21.083Z,5.07
2018-12-05T08:56:46.252Z,2.33
2018-12-05T08:59:16.681Z,2.40
2018-12-05T09:01:46.894Z,2.90
2018-12-05T09:04:17.404Z,4.07
2018-12-05T09:06:47.626Z,2.03
2018-12-05T09:09:18.191Z,3.97
2018-12-05T09:11:48.487Z,5.60
2018-12-05T09:14:19.133Z,2.50
2018-12-05T09:16:49.239Z,2.23
2018-12-05T09:19:19.519Z,3.17
2018-12-05T09:21:49.746Z,3.03
2018-12-05T09:24:19.948Z,4.53
2018-12-05T09:26:50.791Z,9.27
2018-12-05T09:29:20.956Z,11.07
2018-12-05T09:31:51.075Z,8.73
2018-12-05T09:34:21.399Z,12.27
2018-12-05T09:36:51.569Z,44.83
2018-12-05T09:39:22.010Z,68.13
2018-12-05T09:41:52.752Z,11.53
2018-12-05T09:44:23.077Z,14.47
2018-12-05T09:46:53.293Z,12.17
2018-12-05T09:49:23.584Z,13.23
2018-12-05T09:51:54.126Z,14.07
2018-12-05T09:54:24.443Z,14.10
2018-12-05T09:56:54.670Z,13.60
2018-12-05T09:59:24.895Z,13.03
2018-12-05T10:01:55.506Z,10.37
2018-12-05T10:04:25.944Z,9.50
2018-12-05T10:06:57.248Z,10.33
2018-12-05T10:09:27.416Z,10.60
2018-12-05T10:11:57.921Z,10.10
2018-12-05T10:14:28.468Z,9.27
2018-12-05T10:16:58.623Z,8.17
2018-12-05T10:19:29.136Z,8.50
2018-12-05T10:21:59.484Z,9.70
2018-12-05T10:24:29.811Z,6.57
2018-12-05T10:27:00.061Z,6.53
2018-12-05T10:29:30.388Z,8.03
2018-12-05T10:32:00.621Z,6.43
2018-12-05T10:34:31.386Z,6.43
2018-12-05T10:37:01.519Z,6.33
2018-12-05T10:39:31.788Z,5.77
2018-12-05T10:42:02.058Z,6.27
2018-12-05T10:44:32.346Z,6.50
2018-12-05T10:47:02.772Z,8.13
2018-12-05T10:49:33.047Z,5.93
2018-12-05T10:52:03.646Z,4.93
2018-12-05T10:54:33.983Z,6.17
2018-12-05T10:57:04.649Z,14.07
2018-12-05T10:59:35.135Z,4.80
2018-12-05T11:02:11.181Z,4.37
2018-12-05T11:04:46.466Z,5.13
2018-12-05T11:07:21.754Z,4.17
2018-12-05T11:09:57.727Z,3.87
2018-12-05T11:12:33.273Z,3.63
2018-12-05T11:15:09.193Z,4.50
2018-12-05T11:17:42.743Z,4.43
2018-12-05T11:20:18.354Z,4.13
2018-12-05T11:22:53.662Z,3.87
2018-12-05T11:25:23.968Z,4.37
2018-12-05T11:27:54.192Z,2.70
2018-12-05T11:30:24.634Z,2.80
2018-12-05T11:32:54.877Z,2.83
2018-12-05T11:35:25.435Z,2.97
2018-12-05T11:37:55.729Z,4.43
2018-12-05T11:40:26.389Z,3.00
2018-12-05T11:42:56.615Z,2.63
2018-12-05T11:45:27.491Z,4.67
2018-12-05T11:47:57.941Z,2.30
2018-12-05T11:50:28.358Z,2.37
2018-12-05T11:52:58.676Z,1.87
2018-12-05T11:55:28.989Z,2.83
2018-12-05T11:57:59.523Z,2.57
2018-12-05T12:00:30.291Z,2.70
2018-12-05T12:03:00.925Z,3.70
2018-12-05T12:05:31.179Z,2.97
2018-12-05T12:08:01.428Z,2.10
2018-12-05T12:10:37.392Z,2.23
2018-12-05T12:13:07.796Z,1.60
2018-12-05T12:15:38.047Z,1.17
2018-12-05T12:18:08.347Z,0.87
2018-12-05T12:20:38.858Z,0.93
2018-12-05T12:23:09.383Z,5.00
2018-12-05T12:25:39.620Z,5.20
2018-12-05T12:28:09.882Z,5.90
2018-12-05T12:30:40.289Z,9.37
2018-12-05T12:33:10.930Z,5.00
2018-12-05T12:35:41.565Z,7.47
2018-12-05T12:38:11.990Z,7.80
2018-12-05T12:40:42.176Z,8.83
2018-12-05T12:43:13.726Z,8.00
2018-12-05T12:45:44.028Z,10.63
2018-12-05T12:48:14.372Z,11.47
2018-12-05T12:50:44.904Z,10.67
2018-12-05T12:53:15.236Z,9.83
2018-12-05T12:55:45.571Z,9.60
2018-12-05T12:58:15.772Z,10.03
2018-12-05T13:00:46.146Z,9.80
2018-12-05T13:03:16.653Z,9.83
2018-12-05T13:05:46.874Z,9.37
2018-12-05T13:08:17.116Z,8.83
2018-12-05T13:10:47.528Z,8.63
2018-12-05T13:13:18.424Z,7.67
2018-12-05T13:15:49.201Z,8.17
2018-12-05T13:18:32.126Z,7.67
2018-12-05T13:21:07.046Z,6.97
2018-12-05T13:23:37.678Z,5.83
2018-12-05T13:26:08.258Z,6.17
2018-12-05T13:28:39.057Z,5.57
2018-12-05T14:50:22.586Z,1999.90
2018-12-05T14:52:53.108Z,1999.90
2018-12-05T14:55:23.655Z,1999.90
2018-12-05T14:57:54.255Z,1999.90
2018-12-05T15:00:25.119Z,1999.90
2018-12-05T15:02:56.001Z,1999.90
2018-12-05T15:05:27.704Z,1999.90
2018-12-05T15:07:58.973Z,1999.90
2018-12-05T15:10:30.307Z,1999.90
2018-12-05T15:13:00.923Z,1999.90
2018-12-05T15:15:31.284Z,1999.90
2018-12-05T15:18:01.821Z,1999.90
2018-12-05T15:20:32.595Z,1999.90
2018-12-05T15:23:03.234Z,27.53
2018-12-05T15:25:33.728Z,31.73
2018-12-05T15:28:04.304Z,30.03
2018-12-05T15:30:35.203Z,30.97
2018-12-05T15:33:06.108Z,35.30
2018-12-05T15:35:36.900Z,33.27
2018-12-05T15:38:07.644Z,33.50
2018-12-05T15:40:38.396Z,39.30
2018-12-05T15:43:09.450Z,32.00
2018-12-05T15:45:40.194Z,33.97
2018-12-05T15:48:11.152Z,33.77
2018-12-05T15:50:42.154Z,36.37
2018-12-05T15:53:12.581Z,34.97
2018-12-05T15:55:43.334Z,33.70
2018-12-05T15:58:13.952Z,44.47
2018-12-05T16:00:45.085Z,45.83
2018-12-05T16:03:16.136Z,40.77
2018-12-05T16:05:46.708Z,41.87
2018-12-05T16:08:17.825Z,27.40
2018-12-05T16:10:48.529Z,23.23
2018-12-05T16:13:20.222Z,27.20
2018-12-05T16:15:51.192Z,24.50
2018-12-05T16:18:22.286Z,22.23
2018-12-05T16:20:53.063Z,22.43
2018-12-05T16:23:24.001Z,44.40
2018-12-05T16:25:55.302Z,47.90
2018-12-05T16:28:25.044Z,40.33
2018-12-05T16:30:55.658Z,52.20
2018-12-05T16:33:26.822Z,47.87
2018-12-05T16:35:58.856Z,53.97
2018-12-05T16:38:29.513Z,47.70
2018-12-05T16:41:00.123Z,49.77
2018-12-05T16:43:30.705Z,53.03
2018-12-05T16:46:01.479Z,42.13
2018-12-05T16:48:32.383Z,41.90
2018-12-05T16:51:03.378Z,43.27
2018-12-05T16:53:36.883Z,39.63
2018-12-05T16:56:07.498Z,44.23
2018-12-05T16:58:38.053Z,41.03
2018-12-05T17:01:08.876Z,41.03
2018-12-05T17:03:40.559Z,40.00
2018-12-05T17:06:13.327Z,47.87
2018-12-05T17:08:44.677Z,41.63
2018-12-05T17:11:18.307Z,39.57
2018-12-05T17:13:50.101Z,41.40
2018-12-05T17:16:20.785Z,40.63
2018-12-05T17:18:51.657Z,39.53
2018-12-05T19:37:27.297Z,43.63
2018-12-05T19:40:00.163Z,36.83
2018-12-05T19:42:31.599Z,39.03
2018-12-05T19:45:03.199Z,33.30
2018-12-05T19:47:34.409Z,41.57
2018-12-05T19:50:07.292Z,41.80
2018-12-05T20:21:01.234Z,36.47
2018-12-05T20:23:34.216Z,41.93
2018-12-05T20:26:06.794Z,41.93
2018-12-05T20:28:39.200Z,48.80
2018-12-05T20:31:10.144Z,42.90
2018-12-05T20:33:41.886Z,51.33
2018-12-05T20:36:13.166Z,40.27
2018-12-05T20:38:44.409Z,44.97
2018-12-05T20:41:16.073Z,57.00
2018-12-05T20:43:48.256Z,47.90
2018-12-05T20:46:20.255Z,58.20
2018-12-05T20:48:51.961Z,53.53
2018-12-05T20:51:23.571Z,60.87
2018-12-05T20:53:55.062Z,58.17
2018-12-05T20:56:25.838Z,61.70
2018-12-05T20:58:56.746Z,61.40
2018-12-05T21:01:27.443Z,56.30
2018-12-05T21:03:58.145Z,54.87
2018-12-05T21:06:28.734Z,56.47
2018-12-05T21:08:59.638Z,64.27
2018-12-05T21:11:30.322Z,63.43
2018-12-05T21:14:00.895Z,67.57
2018-12-05T21:16:31.677Z,64.47
2018-12-05T21:19:03.002Z,63.23
2018-12-05T21:21:33.577Z,52.50
2018-12-05T21:24:04.415Z,70.40
2018-12-05T21:26:34.975Z,64.70
2018-12-05T21:29:05.869Z,64.53
2018-12-05T21:31:36.728Z,67.70
2018-12-05T21:34:08.379Z,64.47
2018-12-05T21:36:39.304Z,72.00
2018-12-05T21:39:10.189Z,59.37
2018-12-05T21:41:40.763Z,65.93
2018-12-05T21:44:12.773Z,83.07
2018-12-05T21:46:44.854Z,75.73
2018-12-05T21:49:14.456Z,74.67
2018-12-05T21:51:45.261Z,71.53
2018-12-05T21:54:16.132Z,57.77
2018-12-05T21:56:46.711Z,63.93
2018-12-05T21:59:17.332Z,60.87
2018-12-05T22:01:47.923Z,50.20
2018-12-05T22:04:18.415Z,44.23
2018-12-05T22:06:49.179Z,41.87
2018-12-05T22:09:19.759Z,34.47
2018-12-05T22:11:50.483Z,34.30
2018-12-05T22:14:21.064Z,35.10
2018-12-05T22:16:51.493Z,24.00
2018-12-05T22:19:22.116Z,20.20
2018-12-05T22:21:52.690Z,24.67
2018-12-05T22:24:23.221Z,22.30
2018-12-05T22:26:53.980Z,19.20
2018-12-05T22:29:24.427Z,13.77
2018-12-05T22:31:55.717Z,15.27
2018-12-05T22:34:26.587Z,12.40
2018-12-05T22:36:56.980Z,12.37
2018-12-05T22:39:27.408Z,12.20
2018-12-05T22:41:57.794Z,12.77
2018-12-05T22:44:28.341Z,18.00
2018-12-05T22:46:59.114Z,23.37
2018-12-05T22:49:29.649Z,21.53
2018-12-05T22:52:00.223Z,13.43
2018-12-05T22:54:30.690Z,13.90
2018-12-05T22:57:15.893Z,10.30
2018-12-05T22:59:46.699Z,8.20
2018-12-05T23:02:17.192Z,8.40
2018-12-05T23:04:47.618Z,8.40
2018-12-05T23:07:18.173Z,7.80
2018-12-05T23:09:48.563Z,6.20
2018-12-05T23:12:18.964Z,6.33
2018-12-05T23:14:49.505Z,7.47
2018-12-05T23:17:20.446Z,5.67
2018-12-05T23:19:51.406Z,5.90
2018-12-05T23:22:22.423Z,4.73
2018-12-05T23:24:53.189Z,3.83
2018-12-05T23:27:24.303Z,3.60
2018-12-05T23:29:55.122Z,2.20
2018-12-05T23:32:25.644Z,3.83
2018-12-05T23:34:55.906Z,2.57
2018-12-05T23:37:26.583Z,2.33
2018-12-05T23:39:57.059Z,3.27
2018-12-05T23:42:27.426Z,2.30
2018-12-05T23:44:57.805Z,2.87
2018-12-05T23:47:28.257Z,1.30
2018-12-05T23:49:58.852Z,8.43
2018-12-05T23:52:29.879Z,2.90
2018-12-05T23:55:00.359Z,2.20
2018-12-05T23:57:30.621Z,1.47
